彰化一整天代售商品

 ㄚ母滴雞湯      香純滴雞精
今日:(01-23):36    昨天:100    總計:423856
回饋金贊助網站→買ㄚ母滴雞湯  博客來買書
關鍵字查詢:
第 5 頁(共 55 頁) 總筆數1639筆 頁次:1   2   3   4   [5]   6   7   8   9   10   ....

121  FortiWeb匯入憑證(Apache)  (2016-08-03 14:46:16)(查看 305 - 178 (bot) - 127 - 194 (other) 次)
122  windows系統如何查看某一個port是否有使用及是那一支程式  (2016-08-03 10:55:44)(查看 220 - 176 (bot) - 44 - 194 (other) 次)
123  Excel如何輸入一個字即可自動帶出想要的字串  (2016-08-01 21:55:38)(查看 489 - 190 (bot) - 299 - 332 (other) 次)
124  ASP出現【區塊無法放在另一個 Script 區塊內】的解決方法  (2016-07-28 14:29:33)(查看 669 - 359 (bot) - 310 - 219 (other) 次)
125  windows 2008 server如何開啟遠端桌面功能  (2016-07-27 15:55:17)(查看 285 - 190 (bot) - 95 - 222 (other) 次)
126  ESXI 連線過程出現錯誤(The VMRC console has disconnected.. attempting to reconnect)  (2016-07-27 14:24:47)(查看 340 - 221 (bot) - 119 - 474 (other) 次)
127  windows 2008 server產製「金鑰」  (2016-07-13 10:51:22)(查看 906 - 476 (bot) - 430 - 369 (other) 次)
128  OpenSSL在windows 2008 server出現版本不符合【未尚找到原因】  (2016-07-13 10:33:21)(查看 192 - 158 (bot) - 34 - 206 (other) 次)
129  FortiWeb匯入憑證  (2016-07-12 15:14:59)(查看 321 - 253 (bot) - 68 - 223 (other) 次)
130  windows 2003 server 匯出憑證  (2016-07-12 14:44:08)(查看 172 - 144 (bot) - 28 - 189 (other) 次)


131  blogger出現【含重複的標題標記的網頁】【尚未找到解法】  (2016-07-11 21:46:16)(查看 361 - 277 (bot) - 84 - 216 (other) 次)
132  如何利用peazip來解決中文檔案壓縮檔案會變成亂碼  (2016-07-11 20:19:01)(查看 188 - 154 (bot) - 34 - 203 (other) 次)
133  如何利用Excel製作出日曆型的待辦事項  (2016-07-11 09:24:04)(查看 325 - 201 (bot) - 124 - 254 (other) 次)
134  windows 2003 server 安裝伺服器憑證  (2016-07-07 15:12:59)(查看 378 - 268 (bot) - 110 - 217 (other) 次)
135  windows 2003 server 安裝根憑證  (2016-07-07 14:46:26)(查看 171 - 145 (bot) - 26 - 214 (other) 次)
136  windows 2003 server 安裝中繼憑證  (2016-07-07 14:44:31)(查看 227 - 157 (bot) - 70 - 157 (other) 次)
137  windows 2003 server 新增憑證管理單元  (2016-07-07 13:52:56)(查看 137 - 118 (bot) - 19 - 181 (other) 次)
138  憑證請求檔(CSR)上傳  (2016-07-07 11:39:54)(查看 188 - 143 (bot) - 45 - 238 (other) 次)
139  windows server 2003 產生「憑證請求檔(CSR)」  (2016-07-07 10:16:21)(查看 129 - 104 (bot) - 25 - 186 (other) 次)
140  Excel多條件查詢使用sumifs跟sumproduct  (2016-07-06 19:01:11)(查看 393 - 239 (bot) - 154 - 213 (other) 次)


141  竹北璽子牛肉麵斤餅專賣店  (2016-07-03 15:17:36)(查看 859 - 624 (bot) - 235 - 188 (other) 次)
142  湖口山丘上景觀咖啡館  (2016-06-29 21:38:57)(查看 876 - 634 (bot) - 242 - 227 (other) 次)
143  學科(21500)餐飲服務丙級題庫830題(所有題目)  (2016-06-29 20:29:29)(查看 165 - 141 (bot) - 24 - 198 (other) 次)
144  windows server 2012 R2安裝步驟  (2016-06-29 09:11:03)(查看 214 - 169 (bot) - 45 - 208 (other) 次)
145  vSphereClient如何使用ISO檔案安裝作業系統  (2016-06-29 09:00:36)(查看 183 - 157 (bot) - 26 - 181 (other) 次)
146  如何在Excel中顯示英文的星期  (2016-06-26 15:59:11)(查看 357 - 239 (bot) - 118 - 214 (other) 次)
147  如何快速將半型數字轉換成全型數字  (2016-06-24 15:35:10)(查看 363 - 231 (bot) - 132 - 198 (other) 次)
148  解決VS.NET二層下拉選單無法顯示  (2016-06-23 16:16:58)(查看 263 - 198 (bot) - 65 - 207 (other) 次)
149  Centos如何避免 Apache 網站的目錄內容顯示出來  (2016-06-22 13:51:53)(查看 376 - 286 (bot) - 90 - 186 (other) 次)
150  WordPress【外掛AddToAny】文章加入社群分享鈕LINE  (2016-06-21 16:39:25)(查看 689 - 581 (bot) - 108 - 221 (other) 次)


查看 10741 - 7411 - 3330 - 6729 - 427538 次
第 5 頁(共 55 頁) 總筆數1639筆 頁次:1   2   3   4   [5]   6   7   8   9   10   ....